Time;durP1;ratioP1;P1;durP2;ratioP2;P2;SDS_P1;SDS_P2;PMS_P1;PMS_P2;Temp;Humidity;BMP_temperature;BMP_pressure;BME280_temperature;BME280_humidity;BME280_pressure;Samples;Min_cycle;Max_cycle;Signal;HPM_P1;HPM_P2
2022/03/31 00:00:36;;;;;;;25.90;17.03;;;9.00;99.90;;;;;;5115365;28;20237;-85
2022/03/31 00:03:07;;;;;;;18.33;16.33;;;9.00;99.90;;;;;;5114489;28;20200;-85
2022/03/31 00:05:34;;;;;;;23.83;17.03;;;9.20;99.90;;;;;;5114467;28;20644;-87
2022/03/31 00:08:04;;;;;;;23.67;16.30;;;9.20;99.90;;;;;;5114501;28;20217;-83
2022/03/31 00:10:35;;;;;;;16.73;14.33;;;9.40;99.90;;;;;;5114490;28;20196;-83
2022/03/31 00:13:04;;;;;;;21.40;17.88;;;9.30;99.90;;;;;;5114789;28;20491;-86
2022/03/31 00:15:34;;;;;;;18.20;15.83;;;9.40;99.90;;;;;;5118177;28;20275;-83
2022/03/31 00:18:02;;;;;;;19.27;14.70;;;9.50;99.90;;;;;;5118052;28;20211;-78
2022/03/31 00:20:29;;;;;;;16.83;15.03;;;9.60;99.90;;;;;;5118430;28;20204;-86
2022/03/31 00:22:57;;;;;;;21.03;16.20;;;9.60;99.90;;;;;;5117947;28;20212;-83
2022/03/31 00:25:25;;;;;;;18.63;14.63;;;9.40;99.90;;;;;;5117968;28;20204;-85
2022/03/31 00:27:56;;;;;;;21.77;14.73;;;9.30;99.90;;;;;;5117910;28;20261;-86
2022/03/31 00:30:23;;;;;;;19.40;15.03;;;9.30;99.90;;;;;;5118350;28;20216;-81
2022/03/31 00:32:50;;;;;;;19.33;14.27;;;9.30;99.90;;;;;;5117912;28;20224;-84
2022/03/31 00:35:17;;;;;;;19.80;14.53;;;9.40;99.90;;;;;;5117561;28;20647;-83
2022/03/31 00:37:44;;;;;;;21.17;14.53;;;9.30;99.90;;;;;;5117906;28;20234;-84
2022/03/31 00:40:15;;;;;;;17.03;14.13;;;9.20;99.90;;;;;;5117713;28;20204;-86
2022/03/31 00:42:43;;;;;;;17.13;13.63;;;9.30;99.90;;;;;;5117411;28;20633;-86
2022/03/31 00:45:15;;;;;;;19.43;14.77;;;9.30;99.90;;;;;;5117721;28;20196;-85
2022/03/31 00:47:42;;;;;;;16.67;14.17;;;9.40;99.90;;;;;;5117156;28;20687;-88
2022/03/31 00:50:10;;;;;;;17.50;14.20;;;9.10;99.90;;;;;;5117379;28;20675;-86
2022/03/31 00:52:37;;;;;;;17.90;13.80;;;9.10;99.90;;;;;;5117887;28;20235;-86
2022/03/31 00:55:04;;;;;;;19.73;14.90;;;8.90;99.90;;;;;;5117912;28;20288;-86
2022/03/31 00:57:33;;;;;;;16.97;14.17;;;8.70;99.90;;;;;;5117299;28;20189;-89
2022/03/31 01:00:01;;;;;;;19.00;14.30;;;8.60;99.90;;;;;;5117569;28;20238;-86
2022/03/31 01:02:31;;;;;;;18.07;13.83;;;8.80;99.90;;;;;;5116981;28;20204;-81
2022/03/31 01:05:00;;;;;;;16.97;13.87;;;8.90;99.90;;;;;;5117431;28;20204;-86
2022/03/31 01:07:30;;;;;;;18.17;12.37;;;8.70;99.90;;;;;;5117283;28;20189;-84
2022/03/31 01:09:58;;;;;;;15.10;12.00;;;8.70;99.90;;;;;;5117049;28;20205;-86
2022/03/31 01:12:25;;;;;;;15.83;13.20;;;8.60;99.90;;;;;;5117391;28;20219;-88
2022/03/31 01:15:07;;;;;;;17.23;12.27;;;8.80;99.90;;;;;;5117186;28;20197;-85
2022/03/31 01:17:37;;;;;;;16.47;11.50;;;8.90;99.90;;;;;;5116875;28;20560;-87
2022/03/31 01:20:09;;;;;;;15.73;11.13;;;8.90;99.90;;;;;;5117683;28;20269;-83
2022/03/31 01:22:36;;;;;;;14.23;10.27;;;8.90;99.90;;;;;;5117281;28;20192;-83
2022/03/31 01:25:07;;;;;;;13.90;10.50;;;8.80;99.90;;;;;;5116037;28;20201;-87
2022/03/31 01:27:37;;;;;;;14.60;10.57;;;8.60;99.90;;;;;;5117004;28;20189;-86
2022/03/31 01:30:06;;;;;;;12.23;10.70;;;8.50;99.90;;;;;;5116371;28;20220;-83
2022/03/31 01:32:33;;;;;;;12.87;9.67;;;8.40;99.90;;;;;;5116650;28;20228;-87
2022/03/31 01:35:03;;;;;;;12.63;9.93;;;8.40;99.90;;;;;;5117305;28;20193;-85
2022/03/31 01:37:39;;;;;;;14.63;11.00;;;8.50;99.90;;;;;;5116951;27;20201;-82
2022/03/31 01:40:08;;;;;;;13.93;9.90;;;8.40;99.90;;;;;;5116368;28;20666;-86
2022/03/31 01:42:39;;;;;;;17.50;10.93;;;8.10;99.90;;;;;;5116731;28;20192;-86
2022/03/31 01:45:08;;;;;;;12.47;9.50;;;8.00;99.90;;;;;;5116219;28;20313;-84
2022/03/31 01:47:35;;;;;;;13.33;10.00;;;8.10;99.90;;;;;;5116468;28;20632;-86
2022/03/31 01:50:03;;;;;;;13.57;9.67;;;8.00;99.90;;;;;;5116790;28;20583;-85
2022/03/31 01:52:29;;;;;;;13.23;9.17;;;7.80;99.90;;;;;;5116911;28;20220;-89
2022/03/31 01:54:56;;;;;;;15.70;9.70;;;8.00;99.90;;;;;;5116861;28;20561;-83
2022/03/31 01:57:24;;;;;;;12.40;9.03;;;8.00;99.90;;;;;;5116264;28;20200;-85
2022/03/31 01:59:54;;;;;;;11.97;9.10;;;7.90;99.90;;;;;;5115919;28;20212;-80
2022/03/31 02:02:22;;;;;;;12.70;9.27;;;7.70;99.90;;;;;;5116835;28;20192;-85
2022/03/31 02:04:55;;;;;;;14.37;10.10;;;7.70;99.90;;;;;;5116668;28;20192;-83
2022/03/31 02:07:21;;;;;;;17.63;10.33;;;7.90;99.90;;;;;;5116508;28;20684;-86
2022/03/31 02:09:48;;;;;;;11.57;10.33;;;7.90;99.90;;;;;;5116633;28;20206;-82
2022/03/31 02:12:15;;;;;;;17.20;11.60;;;7.90;99.90;;;;;;5116378;28;20216;-84
2022/03/31 02:14:44;;;;;;;15.33;12.13;;;7.90;99.90;;;;;;5115723;28;20195;-88
2022/03/31 02:17:13;;;;;;;16.70;12.20;;;7.90;99.90;;;;;;5116179;28;20196;-85
2022/03/31 02:19:39;;;;;;;13.37;10.83;;;7.90;99.90;;;;;;5115594;28;20643;-83
2022/03/31 02:22:07;;;;;;;14.60;11.00;;;7.90;99.90;;;;;;5116572;28;20205;-85
2022/03/31 02:24:35;;;;;;;9.80;7.20;;;7.80;99.90;;;;;;5116535;28;20562;-87
2022/03/31 02:27:05;;;;;;;8.77;6.40;;;7.80;99.90;;;;;;5116401;28;20247;-89
2022/03/31 02:29:33;;;;;;;9.33;5.40;;;7.60;99.90;;;;;;5116118;28;20227;-88
2022/03/31 02:32:01;;;;;;;6.40;5.03;;;7.00;99.90;;;;;;5115778;28;20228;-88
2022/03/31 02:34:30;;;;;;;6.70;5.30;;;6.60;99.90;;;;;;5116100;28;20210;-87
2022/03/31 02:36:59;;;;;;;9.83;5.17;;;6.50;99.90;;;;;;5115693;28;20189;-86
2022/03/31 02:39:29;;;;;;;9.17;4.80;;;6.40;99.90;;;;;;5115980;28;20215;-87
2022/03/31 02:41:57;;;;;;;8.30;5.60;;;6.10;99.90;;;;;;5115759;28;20297;-83
2022/03/31 02:44:25;;;;;;;12.33;5.83;;;6.00;99.90;;;;;;5115886;28;20543;-88
2022/03/31 02:46:52;;;;;;;6.83;6.00;;;6.00;99.90;;;;;;5115750;28;20425;-85
2022/03/31 02:49:20;;;;;;;7.90;6.90;;;5.90;99.90;;;;;;5116018;28;21093;-88
2022/03/31 02:51:47;;;;;;;6.80;6.20;;;5.90;99.90;;;;;;5115595;28;20498;-84
2022/03/31 02:57:10;;;;;;;7.87;6.27;;;5.80;99.90;;;;;;5053589;28;20435;-84
2022/03/31 02:59:37;;;;;;;7.97;6.67;;;5.80;99.90;;;;;;5101224;28;20445;-83
2022/03/31 03:02:05;;;;;;;11.93;7.28;;;5.80;99.90;;;;;;5113039;28;20437;-86
2022/03/31 03:04:34;;;;;;;7.20;6.47;;;5.80;99.90;;;;;;5114805;28;20325;-87
2022/03/31 03:07:01;;;;;;;7.40;6.70;;;5.50;99.90;;;;;;5133053;28;20565;-82
2022/03/31 03:09:28;;;;;;;10.07;7.37;;;5.50;99.90;;;;;;5132833;28;20444;-82
2022/03/31 03:11:55;;;;;;;8.10;6.87;;;5.40;99.90;;;;;;5134016;28;20488;-79
2022/03/31 03:14:22;;;;;;;7.90;6.77;;;5.40;99.90;;;;;;5134751;28;20501;-81
2022/03/31 03:16:49;;;;;;;9.30;6.97;;;5.30;99.90;;;;;;5134727;28;20449;-78
2022/03/31 03:19:16;;;;;;;10.57;6.80;;;5.30;99.90;;;;;;5123990;28;20448;-85
2022/03/31 03:21:45;;;;;;;8.00;6.60;;;5.20;99.90;;;;;;5115443;28;20801;-89
2022/03/31 03:24:13;;;;;;;7.00;6.30;;;5.10;99.90;;;;;;5115436;28;20432;-88
2022/03/31 03:26:39;;;;;;;10.13;7.07;;;5.00;99.90;;;;;;5116496;28;20429;-85
2022/03/31 03:29:06;;;;;;;6.03;5.63;;;5.10;99.90;;;;;;5116070;28;20496;-86
2022/03/31 03:31:33;;;;;;;6.00;5.50;;;5.10;99.90;;;;;;5115889;28;20444;-87
2022/03/31 03:34:03;;;;;;;5.33;4.83;;;5.10;99.90;;;;;;5115064;28;20460;-89
2022/03/31 03:36:30;;;;;;;3.70;3.47;;;5.00;99.90;;;;;;5114913;28;20804;-86
2022/03/31 03:38:59;;;;;;;3.63;3.43;;;4.70;99.90;;;;;;5115291;28;20456;-92
2022/03/31 03:41:26;;;;;;;3.20;3.00;;;4.50;99.90;;;;;;5115159;28;20962;-81
2022/03/31 03:43:53;;;;;;;3.67;3.30;;;4.20;99.90;;;;;;5115487;28;20852;-89
2022/03/31 03:46:23;;;;;;;3.93;2.60;;;4.10;99.90;;;;;;5115043;28;20437;-88
2022/03/31 03:48:53;;;;;;;2.60;2.50;;;4.00;99.90;;;;;;5114763;28;20441;-86
2022/03/31 03:51:19;;;;;;;2.87;2.77;;;3.90;99.90;;;;;;5115413;28;20441;-90
2022/03/31 03:53:46;;;;;;;3.03;2.83;;;3.90;99.90;;;;;;5115941;28;20480;-86
2022/03/31 03:56:16;;;;;;;3.00;2.80;;;3.90;99.90;;;;;;5115551;28;20433;-85
2022/03/31 03:58:43;;;;;;;2.87;2.63;;;3.80;99.90;;;;;;5115003;28;20449;-81
2022/03/31 04:01:11;;;;;;;6.13;3.23;;;3.80;99.90;;;;;;5115037;28;20456;-82
2022/03/31 04:03:38;;;;;;;3.00;2.73;;;3.60;99.90;;;;;;5115036;28;20448;-84
2022/03/31 04:06:11;;;;;;;4.07;3.13;;;3.70;99.90;;;;;;5115103;28;20439;-88
2022/03/31 04:08:39;;;;;;;6.60;3.10;;;3.70;99.90;;;;;;5117399;28;20444;-80
2022/03/31 04:11:07;;;;;;;3.07;2.87;;;3.80;99.90;;;;;;5115263;28;20440;-84
2022/03/31 04:13:35;;;;;;;6.07;3.60;;;3.80;99.90;;;;;;5114858;28;20485;-80
2022/03/31 04:16:03;;;;;;;3.80;3.60;;;3.80;99.90;;;;;;5114826;28;20452;-80
2022/03/31 04:18:30;;;;;;;3.83;3.60;;;3.70;99.90;;;;;;5113744;28;20440;-81
2022/03/31 04:21:01;;;;;;;5.10;4.00;;;3.60;99.90;;;;;;5114182;28;20440;-80
2022/03/31 04:23:29;;;;;;;4.70;4.40;;;3.80;99.90;;;;;;5115025;28;20444;-82
2022/03/31 04:25:56;;;;;;;3.83;3.63;;;3.80;99.90;;;;;;5116049;28;20441;-80
2022/03/31 04:28:22;;;;;;;4.13;3.73;;;3.60;99.90;;;;;;5117931;28;20445;-82
2022/03/31 04:30:51;;;;;;;3.60;3.40;;;3.70;99.90;;;;;;5117918;28;20448;-80
2022/03/31 04:33:17;;;;;;;3.60;3.40;;;3.70;99.90;;;;;;5117204;28;20483;-84
2022/03/31 04:35:44;;;;;;;3.70;3.07;;;3.70;99.90;;;;;;5116833;28;20437;-81
2022/03/31 04:38:11;;;;;;;3.40;3.20;;;3.80;99.90;;;;;;5114452;28;20437;-82
2022/03/31 04:40:38;;;;;;;4.43;4.22;;;3.80;99.90;;;;;;5113971;28;20437;-87
2022/03/31 04:43:05;;;;;;;4.00;3.70;;;3.80;99.90;;;;;;5114729;28;20209;-81
2022/03/31 04:45:31;;;;;;;3.87;3.67;;;3.80;99.90;;;;;;5115153;28;20453;-78
2022/03/31 04:48:00;;;;;;;4.63;4.07;;;3.80;99.90;;;;;;5114363;28;20448;-78
2022/03/31 04:50:27;;;;;;;3.90;3.70;;;3.70;99.90;;;;;;5114829;28;20452;-80
2022/03/31 04:52:53;;;;;;;4.27;3.97;;;3.60;99.90;;;;;;5113798;28;20540;-79
2022/03/31 04:55:20;;;;;;;4.13;3.93;;;3.70;99.90;;;;;;5114693;28;20923;-80
2022/03/31 04:57:47;;;;;;;4.90;4.50;;;3.70;99.90;;;;;;5115097;28;20449;-79
2022/03/31 05:00:15;;;;;;;4.70;4.40;;;3.80;99.90;;;;;;5115786;28;20461;-81
2022/03/31 05:02:41;;;;;;;5.80;5.33;;;3.80;99.90;;;;;;5099379;28;20445;-85
2022/03/31 05:05:12;;;;;;;4.90;4.50;;;3.80;99.90;;;;;;5097701;28;20775;-89
2022/03/31 05:07:39;;;;;;;6.07;5.57;;;3.60;99.90;;;;;;5096405;28;20978;-84
2022/03/31 05:10:07;;;;;;;6.03;5.07;;;3.60;99.90;;;;;;5097223;28;20438;-83
2022/03/31 05:12:35;;;;;;;5.40;5.00;;;3.70;99.90;;;;;;5097360;28;20492;-83
2022/03/31 05:15:03;;;;;;;5.70;5.30;;;3.70;99.90;;;;;;5096756;28;20450;-83
2022/03/31 05:17:34;;;;;;;6.20;5.70;;;3.70;99.90;;;;;;5098445;28;20483;-83
2022/03/31 05:20:05;;;;;;;6.60;6.17;;;3.80;99.90;;;;;;5097243;28;20442;-81
2022/03/31 05:22:35;;;;;;;6.67;6.17;;;3.60;99.90;;;;;;5095986;28;20457;-81
2022/03/31 05:25:02;;;;;;;7.13;6.63;;;3.60;99.90;;;;;;5098358;28;20507;-85
2022/03/31 05:27:30;;;;;;;7.00;6.40;;;3.50;99.90;;;;;;5096551;28;20452;-85
2022/03/31 05:29:57;;;;;;;6.90;6.40;;;3.50;99.90;;;;;;5096800;28;20462;-83
2022/03/31 05:32:24;;;;;;;6.70;6.20;;;3.60;99.90;;;;;;5096898;28;20499;-84
2022/03/31 05:34:51;;;;;;;8.27;7.47;;;3.50;99.90;;;;;;5096849;28;20630;-85
2022/03/31 05:37:18;;;;;;;9.00;8.20;;;3.60;99.90;;;;;;5096299;28;20805;-78
2022/03/31 05:39:46;;;;;;;7.97;7.37;;;3.60;99.90;;;;;;5096185;28;20457;-84
2022/03/31 05:42:13;;;;;;;8.57;7.77;;;3.60;99.90;;;;;;5096269;28;20807;-80
2022/03/31 05:44:41;;;;;;;8.70;7.90;;;3.50;99.90;;;;;;5096020;28;20449;-80
2022/03/31 05:47:08;;;;;;;9.83;8.93;;;3.60;99.90;;;;;;5096518;28;20537;-82
2022/03/31 05:49:43;;;;;;;14.87;11.13;;;3.60;99.90;;;;;;5096338;28;20449;-80
2022/03/31 05:52:10;;;;;;;11.57;10.03;;;3.60;99.90;;;;;;5095531;28;20445;-85
2022/03/31 05:54:37;;;;;;;11.65;10.85;;;3.60;99.90;;;;;;5094741;28;20427;-85
2022/03/31 05:57:06;;;;;;;9.77;8.87;;;3.70;99.90;;;;;;5095749;28;20201;-82
2022/03/31 05:59:33;;;;;;;9.77;8.97;;;3.70;99.90;;;;;;5096102;28;20449;-83
2022/03/31 06:02:00;;;;;;;9.23;8.43;;;3.60;99.90;;;;;;5096297;28;20453;-84
2022/03/31 06:04:27;;;;;;;9.77;8.97;;;3.60;99.90;;;;;;5095970;28;20532;-85
2022/03/31 06:06:56;;;;;;;10.67;9.57;;;3.50;99.90;;;;;;5095457;28;20434;-81
2022/03/31 06:09:23;;;;;;;10.27;9.27;;;3.60;99.90;;;;;;5095690;28;20442;-85
2022/03/31 06:11:51;;;;;;;9.17;8.33;;;3.50;99.90;;;;;;5095310;28;20434;-86
2022/03/31 06:14:20;;;;;;;11.60;10.50;;;3.50;99.90;;;;;;5096511;28;20485;-91
2022/03/31 06:16:49;;;;;;;12.30;10.97;;;3.60;99.90;;;;;;5096763;28;20432;-89
2022/03/31 06:19:16;;;;;;;14.68;13.57;;;3.60;99.90;;;;;;5095375;28;20431;-86
2022/03/31 06:21:44;;;;;;;13.50;12.20;;;3.70;99.90;;;;;;5095982;28;20197;-87
2022/03/31 06:24:13;;;;;;;13.53;12.13;;;3.60;99.90;;;;;;5096183;28;20513;-87
2022/03/31 06:26:44;;;;;;;13.20;11.80;;;3.70;99.90;;;;;;5096618;28;20438;-88
2022/03/31 06:29:11;;;;;;;12.30;11.10;;;3.70;99.90;;;;;;5096075;28;20466;-88
2022/03/31 06:31:45;;;;;;;10.93;10.03;;;3.80;99.90;;;;;;5096688;28;20458;-87
2022/03/31 06:34:15;;;;;;;10.10;8.90;;;3.90;99.90;;;;;;5096133;28;20472;-88
2022/03/31 06:36:44;;;;;;;9.30;8.57;;;3.90;99.90;;;;;;5096038;28;20491;-89
2022/03/31 06:39:11;;;;;;;8.80;8.10;;;3.90;99.90;;;;;;5095870;28;20462;-87
2022/03/31 06:41:44;;;;;;;8.33;7.63;;;4.00;99.90;;;;;;5096031;28;20465;-88
2022/03/31 06:44:13;;;;;;;9.03;8.23;;;3.90;99.90;;;;;;5095323;28;20432;-83
2022/03/31 06:46:43;;;;;;;9.60;8.77;;;3.90;99.90;;;;;;5095710;28;20430;-88
2022/03/31 06:49:14;;;;;;;12.37;9.00;;;4.00;99.90;;;;;;5095368;28;20815;-89
2022/03/31 06:51:44;;;;;;;11.87;10.63;;;4.00;99.90;;;;;;5094423;28;20487;-90
2022/03/31 06:54:18;;;;;;;11.80;10.67;;;4.10;99.90;;;;;;5095246;28;20488;-87
2022/03/31 06:56:51;;;;;;;10.37;9.37;;;4.00;99.90;;;;;;5114175;28;20437;-88
2022/03/31 06:59:21;;;;;;;9.10;8.30;;;4.00;99.90;;;;;;5111161;28;20912;-88
2022/03/31 07:01:51;;;;;;;9.03;8.23;;;4.20;99.90;;;;;;5115869;28;20535;-87
2022/03/31 07:04:19;;;;;;;9.13;8.30;;;4.10;99.90;;;;;;5115425;28;20429;-87
2022/03/31 07:06:52;;;;;;;9.67;8.80;;;4.10;99.90;;;;;;5115548;28;20433;-87
2022/03/31 07:09:25;;;;;;;7.70;7.00;;;4.20;99.90;;;;;;5115654;28;20565;-87
2022/03/31 07:11:52;;;;;;;8.00;7.20;;;4.20;99.90;;;;;;5115535;28;20440;-86
2022/03/31 07:14:20;;;;;;;7.40;6.80;;;4.20;99.90;;;;;;5115479;28;20476;-89
2022/03/31 07:16:53;;;;;;;6.27;5.87;;;4.20;99.90;;;;;;5115410;28;20444;-92
2022/03/31 07:19:23;;;;;;;6.40;5.90;;;4.20;99.90;;;;;;5113940;28;20429;-88
2022/03/31 07:21:56;;;;;;;4.90;4.57;;;4.20;99.90;;;;;;5106855;28;20452;-88
2022/03/31 07:24:23;;;;;;;4.60;4.30;;;4.20;99.90;;;;;;5110216;28;20485;-89
2022/03/31 07:26:51;;;;;;;4.07;3.87;;;4.20;99.90;;;;;;5099183;28;20707;-87
2022/03/31 07:29:20;;;;;;;4.07;3.77;;;4.20;99.90;;;;;;5094424;28;20457;-89
2022/03/31 07:31:47;;;;;;;4.90;4.60;;;4.30;99.90;;;;;;5093999;28;20444;-89
2022/03/31 07:34:19;;;;;;;5.03;4.57;;;4.30;99.90;;;;;;5094112;28;20224;-89
2022/03/31 07:36:48;;;;;;;4.70;4.40;;;4.40;99.90;;;;;;5095124;28;20422;-88
2022/03/31 07:39:15;;;;;;;4.50;4.20;;;4.40;99.90;;;;;;5094675;28;20449;-82
2022/03/31 07:41:44;;;;;;;4.43;4.13;;;4.50;99.90;;;;;;5094934;28;21385;-88
2022/03/31 07:44:11;;;;;;;4.10;3.90;;;4.40;99.90;;;;;;5094700;28;20449;-83
2022/03/31 07:46:41;;;;;;;4.97;3.70;;;4.40;99.90;;;;;;5093973;28;20441;-88
2022/03/31 07:49:09;;;;;;;4.07;3.67;;;4.40;99.90;;;;;;5097288;28;20426;-87
2022/03/31 07:51:42;;;;;;;6.13;3.80;;;4.30;99.90;;;;;;5104819;28;20940;-88
2022/03/31 07:54:12;;;;;;;4.13;3.60;;;4.20;99.90;;;;;;5103692;28;20472;-84
2022/03/31 07:56:41;;;;;;;4.32;4.03;;;4.30;99.90;;;;;;5103053;28;20421;-87
2022/03/31 07:59:08;;;;;;;3.73;3.43;;;4.30;99.90;;;;;;5094651;28;20193;-87
2022/03/31 08:01:37;;;;;;;3.80;3.60;;;4.30;99.90;;;;;;5093671;28;20456;-88
2022/03/31 08:04:06;;;;;;;3.83;3.43;;;4.30;99.90;;;;;;5093924;28;20460;-88
2022/03/31 08:06:33;;;;;;;3.40;3.20;;;4.40;99.90;;;;;;5102361;28;20484;-84
2022/03/31 08:09:00;;;;;;;3.50;3.20;;;4.40;99.90;;;;;;5099572;28;20441;-86
2022/03/31 08:11:29;;;;;;;3.10;2.90;;;4.50;99.90;;;;;;5104881;28;20786;-89
2022/03/31 08:13:59;;;;;;;3.57;3.27;;;4.60;99.90;;;;;;5093761;28;20473;-86
2022/03/31 08:16:27;;;;;;;3.20;3.00;;;4.70;99.90;;;;;;5093517;28;20498;-86
2022/03/31 08:18:56;;;;;;;3.53;2.60;;;4.70;99.90;;;;;;5093792;28;20430;-88
2022/03/31 08:21:24;;;;;;;2.72;2.53;;;4.80;99.90;;;;;;5092509;28;20425;-85
2022/03/31 08:23:51;;;;;;;2.23;2.13;;;5.00;99.90;;;;;;5093799;28;20201;-87
2022/03/31 08:26:18;;;;;;;3.20;2.27;;;4.90;99.90;;;;;;5093683;28;20441;-86
2022/03/31 08:28:49;;;;;;;2.90;1.80;;;4.90;99.90;;;;;;5093446;28;20458;-87
2022/03/31 08:31:17;;;;;;;1.67;1.57;;;5.10;99.90;;;;;;5096501;28;20915;-86
2022/03/31 08:33:47;;;;;;;1.80;1.70;;;5.30;99.90;;;;;;5095740;28;20473;-86
2022/03/31 08:36:16;;;;;;;1.83;1.73;;;5.30;99.90;;;;;;5099215;28;20454;-86
2022/03/31 08:38:46;;;;;;;2.23;2.03;;;5.10;99.90;;;;;;5097949;28;20441;-88
2022/03/31 08:41:19;;;;;;;1.80;1.70;;;5.00;99.90;;;;;;5097791;28;20561;-88
2022/03/31 08:43:49;;;;;;;1.80;1.70;;;5.20;99.90;;;;;;5097864;28;20460;-89
2022/03/31 08:46:17;;;;;;;2.00;1.40;;;5.30;99.90;;;;;;5097594;28;20438;-88
2022/03/31 08:48:46;;;;;;;1.83;1.73;;;5.30;99.90;;;;;;5097803;28;20469;-89
2022/03/31 08:51:17;;;;;;;14.20;2.27;;;5.40;99.90;;;;;;5097577;28;20426;-88
2022/03/31 08:53:46;;;;;;;2.40;1.63;;;5.60;99.90;;;;;;5097917;28;20476;-89
2022/03/31 08:56:19;;;;;;;1.77;1.67;;;5.70;99.90;;;;;;5097737;28;20552;-88
2022/03/31 08:58:50;;;;;;;2.00;1.90;;;5.60;99.90;;;;;;5105865;28;20446;-87
2022/03/31 09:01:27;;;;;;;2.60;1.50;;;5.60;99.90;;;;;;5099806;28;20460;-88
2022/03/31 09:03:54;;;;;;;3.03;1.60;;;5.70;99.90;;;;;;5105401;28;20655;-89
2022/03/31 09:07:01;;;;;;;1.70;1.60;;;5.80;99.90;;;;;;5117507;28;20451;-86
2022/03/31 09:09:30;;;;;;;1.43;1.33;;;6.00;99.90;;;;;;5117166;28;20452;-87
2022/03/31 09:12:00;;;;;;;1.50;1.47;;;6.00;99.90;;;;;;5097430;28;20456;-85
2022/03/31 09:14:34;;;;;;;2.10;2.00;;;6.20;99.90;;;;;;5096568;28;20229;-85
2022/03/31 09:17:11;;;;;;;1.70;1.60;;;6.30;99.90;;;;;;5097160;28;20200;-87
2022/03/31 09:19:42;;;;;;;2.63;1.57;;;6.50;99.90;;;;;;5110988;28;20245;-88
2022/03/31 09:22:15;;;;;;;1.80;1.70;;;6.50;99.90;;;;;;5120552;28;20216;-89
2022/03/31 09:24:45;;;;;;;1.80;1.70;;;6.50;99.90;;;;;;5118178;28;20201;-88
2022/03/31 09:27:30;;;;;;;1.80;1.70;;;6.50;99.90;;;;;;5116939;28;20424;-89
2022/03/31 09:30:07;;;;;;;1.80;1.70;;;6.90;99.90;;;;;;5108001;28;20229;-90
2022/03/31 09:32:35;;;;;;;2.00;1.80;;;6.80;99.90;;;;;;5096064;28;20248;-89
2022/03/31 09:35:07;;;;;;;3.33;1.70;;;6.90;99.90;;;;;;5094330;28;20232;-89
2022/03/31 09:37:37;;;;;;;1.70;1.60;;;7.10;99.90;;;;;;5096668;28;20679;-90
2022/03/31 09:40:05;;;;;;;2.20;1.50;;;7.00;99.90;;;;;;5095473;28;20287;-91
2022/03/31 09:42:56;;;;;;;2.17;1.30;;;6.90;99.90;;;;;;5097080;28;20542;-91
2022/03/31 09:45:39;;;;;;;1.40;1.30;;;7.00;99.90;;;;;;5096287;28;20209;-90
2022/03/31 09:48:19;;;;;;;2.13;1.20;;;6.70;99.90;;;;;;5097426;28;20201;-89
2022/03/31 09:50:45;;;;;;;1.77;1.20;;;6.60;99.90;;;;;;5096010;28;20212;-89
2022/03/31 09:53:13;;;;;;;1.23;1.13;;;6.70;99.90;;;;;;5096493;28;20211;-89
2022/03/31 09:55:41;;;;;;;1.57;1.40;;;6.90;99.90;;;;;;5096656;28;20233;-87
2022/03/31 09:58:09;;;;;;;1.97;1.30;;;6.90;99.90;;;;;;5096512;28;20208;-90
2022/03/31 10:00:43;;;;;;;7.07;2.70;;;6.60;99.90;;;;;;5094614;28;20197;-90
2022/03/31 10:03:14;;;;;;;2.20;1.70;;;6.60;99.90;;;;;;5095095;28;20196;-89
2022/03/31 10:05:42;;;;;;;7.90;3.70;;;6.70;99.90;;;;;;5094811;28;20205;-89
2022/03/31 10:08:11;;;;;;;2.53;1.93;;;6.60;99.90;;;;;;5095265;28;20720;-89
2022/03/31 10:10:38;;;;;;;4.70;2.03;;;6.60;99.90;;;;;;5107821;28;20200;-87
2022/03/31 10:13:16;;;;;;;5.00;1.80;;;6.90;99.90;;;;;;5118388;28;20204;-89
2022/03/31 10:15:45;;;;;;;6.87;2.27;;;6.90;99.90;;;;;;5114800;28;20318;-88
2022/03/31 10:18:14;;;;;;;3.67;1.70;;;7.10;99.90;;;;;;5115850;28;20609;-90
2022/03/31 10:20:53;;;;;;;3.37;2.00;;;7.10;99.90;;;;;;5115713;28;20196;-89
2022/03/31 10:26:22;;;;;;;2.67;2.17;;;7.20;99.90;;;;;;5114749;28;20208;-91
2022/03/31 10:28:57;;;;;;;2.37;1.97;;;7.00;99.90;;;;;;5100998;28;20223;-86
2022/03/31 10:31:37;;;;;;;4.70;2.30;;;7.10;99.90;;;;;;5097816;28;20468;-84
2022/03/31 10:34:06;;;;;;;2.00;1.90;;;7.30;99.90;;;;;;5103658;28;20209;-89
2022/03/31 10:36:39;;;;;;;2.90;2.03;;;7.30;99.90;;;;;;5101024;28;20568;-91
2022/03/31 10:39:08;;;;;;;6.37;2.47;;;7.10;99.90;;;;;;5095302;28;20209;-87
2022/03/31 10:41:36;;;;;;;2.90;2.67;;;7.30;99.90;;;;;;5094688;28;20659;-87
2022/03/31 10:44:16;;;;;;;3.60;2.60;;;7.30;99.90;;;;;;5095348;28;20197;-88
2022/03/31 10:46:47;;;;;;;2.63;2.43;;;7.30;99.90;;;;;;5095376;28;20196;-89
2022/03/31 10:49:23;;;;;;;3.83;2.80;;;7.30;99.90;;;;;;5095382;28;20195;-87
2022/03/31 10:51:50;;;;;;;3.20;2.80;;;7.20;99.90;;;;;;5107059;28;20210;-89
2022/03/31 10:54:29;;;;;;;5.73;3.53;;;7.30;99.90;;;;;;5115559;28;20216;-90
2022/03/31 10:57:08;;;;;;;5.03;4.00;;;7.20;99.90;;;;;;5109583;28;20202;-85
2022/03/31 10:59:39;;;;;;;6.10;4.40;;;7.20;99.90;;;;;;5094673;28;20662;-87
2022/03/31 11:02:18;;;;;;;5.30;3.80;;;7.10;99.90;;;;;;5095295;28;20193;-87
2022/03/31 11:04:47;;;;;;;7.30;3.83;;;7.20;99.90;;;;;;5094812;28;20194;-88
2022/03/31 11:07:25;;;;;;;4.83;3.03;;;7.30;99.90;;;;;;5095058;28;20216;-87
2022/03/31 11:10:01;;;;;;;2.87;2.67;;;7.40;99.90;;;;;;5094338;28;20197;-86
2022/03/31 11:12:30;;;;;;;6.13;2.70;;;7.60;99.90;;;;;;5094635;28;20200;-89
2022/03/31 11:15:00;;;;;;;2.78;2.25;;;7.50;99.90;;;;;;5094098;28;20438;-86
2022/03/31 11:17:29;;;;;;;4.40;2.27;;;7.70;99.90;;;;;;5094363;28;20201;-87
2022/03/31 11:20:00;;;;;;;2.93;1.80;;;7.80;99.90;;;;;;5094327;28;20683;-87
2022/03/31 11:22:33;;;;;;;4.67;2.50;;;7.60;99.90;;;;;;5098672;28;20211;-92
2022/03/31 11:25:11;;;;;;;3.33;1.40;;;7.70;99.90;;;;;;5105528;28;20197;-90
2022/03/31 11:27:39;;;;;;;5.33;2.80;;;7.40;99.90;;;;;;5098050;28;20204;-86
2022/03/31 11:30:11;;;;;;;7.10;3.87;;;7.50;99.90;;;;;;5092877;28;20626;-82
2022/03/31 11:32:40;;;;;;;1.67;1.53;;;7.40;99.90;;;;;;5093527;28;20212;-90
2022/03/31 11:35:12;;;;;;;1.50;1.40;;;7.30;99.90;;;;;;5093306;28;20603;-79
2022/03/31 11:37:47;;;;;;;12.68;5.15;;;7.40;99.90;;;;;;5106945;28;20776;-87
2022/03/31 11:40:18;;;;;;;3.13;1.63;;;7.70;99.90;;;;;;5113212;28;20211;-78
2022/03/31 11:42:45;;;;;;;2.23;1.30;;;8.00;99.90;;;;;;5097417;28;20644;-89
2022/03/31 11:45:27;;;;;;;3.60;1.20;;;8.10;99.90;;;;;;5094212;28;20561;-85
2022/03/31 11:48:00;;;;;;;1.40;1.30;;;8.10;99.90;;;;;;5093520;28;20201;-86
2022/03/31 11:50:28;;;;;;;4.07;1.47;;;7.80;99.90;;;;;;5092108;28;20205;-81
2022/03/31 11:52:56;;;;;;;1.20;1.10;;;7.60;99.90;;;;;;5093612;28;20262;-87
2022/03/31 11:55:23;;;;;;;7.53;1.60;;;7.50;99.90;;;;;;5093421;28;20274;-89
2022/03/31 11:57:55;;;;;;;2.07;1.80;;;7.50;99.90;;;;;;5093290;28;20197;-87
2022/03/31 12:00:23;;;;;;;3.80;1.80;;;7.50;99.90;;;;;;5092320;28;20441;-86
2022/03/31 12:03:00;;;;;;;21.67;4.30;;;7.50;99.90;;;;;;5093487;28;20204;-83
2022/03/31 12:05:27;;;;;;;3.33;1.50;;;7.60;99.90;;;;;;5093698;28;20235;-84
2022/03/31 12:07:54;;;;;;;1.57;1.47;;;7.50;99.90;;;;;;5093605;28;20287;-82
2022/03/31 12:10:22;;;;;;;3.83;1.63;;;7.30;99.90;;;;;;5097921;28;20692;-89
2022/03/31 12:12:49;;;;;;;6.43;1.77;;;7.30;99.90;;;;;;5097722;28;20664;-88
2022/03/31 12:15:22;;;;;;;3.00;1.50;;;7.50;99.90;;;;;;5097799;28;20320;-86
2022/03/31 12:18:05;;;;;;;1.90;1.63;;;7.80;99.90;;;;;;5097886;28;20205;-88
2022/03/31 12:20:34;;;;;;;2.40;1.70;;;7.80;99.90;;;;;;5097344;28;20205;-86
2022/03/31 12:23:01;;;;;;;7.97;2.00;;;7.70;99.90;;;;;;5097842;28;20567;-88
2022/03/31 12:25:33;;;;;;;4.23;1.80;;;7.60;99.90;;;;;;5097376;28;20193;-86
2022/03/31 12:28:04;;;;;;;6.67;2.70;;;7.50;99.90;;;;;;5097232;28;20289;-83
2022/03/31 12:30:45;;;;;;;5.83;2.53;;;7.40;99.90;;;;;;5097120;28;20258;-88
2022/03/31 12:33:25;;;;;;;2.70;2.30;;;7.20;99.90;;;;;;5098697;28;20215;-92
2022/03/31 12:36:00;;;;;;;2.57;1.83;;;7.50;99.90;;;;;;5097755;28;20551;-87
2022/03/31 12:38:43;;;;;;;3.53;1.93;;;7.60;99.90;;;;;;5096859;28;20300;-83
2022/03/31 12:41:17;;;;;;;5.27;1.87;;;7.80;99.90;;;;;;5097599;28;20205;-90
2022/03/31 12:43:54;;;;;;;1.63;1.50;;;7.80;99.90;;;;;;5097774;28;20204;-92
2022/03/31 12:46:22;;;;;;;1.70;1.30;;;8.00;99.90;;;;;;5098280;28;20205;-91
2022/03/31 12:48:54;;;;;;;1.57;1.43;;;8.20;99.90;;;;;;5097932;28;20201;-92
2022/03/31 12:51:22;;;;;;;3.77;1.03;;;8.20;99.90;;;;;;5100618;28;20212;-92
2022/03/31 12:53:49;;;;;;;0.80;0.80;;;8.20;99.90;;;;;;5100575;28;20288;-88
2022/03/31 12:56:26;;;;;;;1.73;0.90;;;8.20;99.90;;;;;;5098133;28;20231;-85
2022/03/31 12:58:55;;;;;;;0.80;0.80;;;7.90;99.90;;;;;;5098276;28;20205;-88
2022/03/31 13:01:25;;;;;;;1.30;1.10;;;8.20;99.90;;;;;;5097614;28;20207;-84
2022/03/31 13:03:54;;;;;;;4.10;1.10;;;8.40;99.90;;;;;;5097589;28;20566;-91
2022/03/31 13:06:21;;;;;;;2.70;1.33;;;8.40;99.90;;;;;;5097395;28;20205;-91
2022/03/31 13:08:50;;;;;;;0.90;0.87;;;8.20;99.90;;;;;;5096994;28;20197;-86
2022/03/31 13:11:17;;;;;;;3.23;1.13;;;8.00;99.90;;;;;;5097128;28;20296;-84